createdAt,value
2022-12-04T00:00:47.073Z,51.97
2022-12-04T00:02:09.149Z,50.10
2022-12-04T00:03:31.317Z,47.07
2022-12-04T00:04:53.407Z,57.90
2022-12-04T00:06:20.316Z,51.40
2022-12-04T00:07:42.393Z,52.47
2022-12-04T00:09:05.540Z,51.23
2022-12-04T00:10:27.630Z,53.13
2022-12-04T00:11:49.776Z,55.57
2022-12-04T00:13:11.892Z,49.63
2022-12-04T00:14:34.488Z,49.20
2022-12-04T00:15:56.825Z,48.10
2022-12-04T00:17:18.904Z,48.80
2022-12-04T00:18:41.430Z,52.67
2022-12-04T00:20:04.523Z,52.33
2022-12-04T00:21:26.890Z,52.27
2022-12-04T00:22:48.913Z,49.53
2022-12-04T00:24:11.053Z,48.07
2022-12-04T00:25:37.914Z,54.00
2022-12-04T00:27:03.326Z,60.17
2022-12-04T00:28:25.341Z,48.93
2022-12-04T00:29:47.453Z,52.63
2022-12-04T00:31:12.643Z,53.10
2022-12-04T00:32:34.758Z,55.00
2022-12-04T00:33:57.099Z,52.17
2022-12-04T00:35:19.175Z,57.87
2022-12-04T00:36:41.309Z,55.27
2022-12-04T00:38:03.407Z,52.70
2022-12-04T00:39:25.489Z,54.90
2022-12-04T00:40:51.887Z,52.87
2022-12-04T00:42:13.949Z,54.90
2022-12-04T00:43:35.976Z,52.90
2022-12-04T00:44:58.043Z,52.90
2022-12-04T00:46:20.997Z,58.63
2022-12-04T00:47:43.151Z,53.13
2022-12-04T00:49:05.342Z,57.23
2022-12-04T00:50:27.417Z,53.70
2022-12-04T00:51:49.448Z,58.37
2022-12-04T00:53:12.642Z,55.57
2022-12-04T00:54:34.678Z,51.07
2022-12-04T00:55:56.761Z,58.40
2022-12-04T00:57:18.824Z,56.03
2022-12-04T00:58:41.596Z,59.23
2022-12-04T01:00:05.035Z,50.40
2022-12-04T01:01:28.690Z,52.80
2022-12-04T01:02:50.870Z,57.50
2022-12-04T01:04:12.964Z,55.37
2022-12-04T01:05:45.511Z,57.60
2022-12-04T01:07:07.545Z,48.27
2022-12-04T01:08:29.574Z,55.90
2022-12-04T01:09:51.725Z,62.37
2022-12-04T01:11:13.831Z,51.53
2022-12-04T01:12:36.801Z,56.30
2022-12-04T01:13:59.930Z,57.10
2022-12-04T01:15:22.030Z,61.67
2022-12-04T01:16:44.182Z,56.67
2022-12-04T01:18:06.336Z,54.80
2022-12-04T01:19:28.365Z,60.63
2022-12-04T01:20:52.462Z,53.87
2022-12-04T01:22:14.571Z,57.23
2022-12-04T01:23:36.666Z,53.00
2022-12-04T01:24:58.784Z,53.00
2022-12-04T01:26:20.969Z,54.73
2022-12-04T01:27:43.028Z,64.00
2022-12-04T01:29:05.157Z,55.80
2022-12-04T01:30:27.308Z,54.80
2022-12-04T01:31:49.473Z,61.17
2022-12-04T01:33:11.531Z,55.30
2022-12-04T01:34:33.574Z,56.10
2022-12-04T01:35:57.272Z,63.50
2022-12-04T01:37:19.358Z,57.83
2022-12-04T01:38:42.047Z,55.83
2022-12-04T01:40:05.056Z,60.43
2022-12-04T01:41:29.965Z,58.87
2022-12-04T01:42:51.989Z,60.77
2022-12-04T01:44:19.539Z,55.87
2022-12-04T01:46:00.544Z,60.03
2022-12-04T01:47:22.651Z,58.20
2022-12-04T01:48:51.806Z,55.90
2022-12-04T01:50:13.910Z,59.57
2022-12-04T01:51:40.667Z,53.83
2022-12-04T01:53:02.783Z,58.80
2022-12-04T01:54:31.297Z,55.67
2022-12-04T01:55:53.858Z,53.33
2022-12-04T01:57:21.520Z,54.23
2022-12-04T01:58:49.208Z,61.67
2022-12-04T02:00:14.330Z,64.80
2022-12-04T02:01:42.467Z,61.30
2022-12-04T02:03:04.779Z,61.03
2022-12-04T02:04:26.917Z,55.50
2022-12-04T02:05:48.947Z,57.87
2022-12-04T02:07:11.928Z,55.67
2022-12-04T02:08:35.966Z,55.03
2022-12-04T02:10:03.715Z,58.10
2022-12-04T02:11:31.602Z,57.20
2022-12-04T02:13:16.809Z,55.60
2022-12-04T02:14:41.356Z,52.40
2022-12-04T02:16:30.370Z,60.33
2022-12-04T02:18:04.433Z,53.13
2022-12-04T02:19:38.439Z,60.20
2022-12-04T02:21:10.611Z,59.50
2022-12-04T02:22:47.572Z,56.93
2022-12-04T02:24:12.332Z,61.13
2022-12-04T02:25:45.742Z,59.13
2022-12-04T02:27:41.283Z,51.60
2022-12-04T02:29:24.376Z,50.03
2022-12-04T02:30:47.656Z,54.90
2022-12-04T02:32:22.149Z,54.33
2022-12-04T02:33:58.070Z,56.77
2022-12-04T02:35:38.552Z,53.17
2022-12-04T02:37:08.425Z,59.70
2022-12-04T02:38:38.223Z,55.10
2022-12-04T02:40:05.191Z,54.73
2022-12-04T02:41:43.528Z,66.70
2022-12-04T02:43:17.766Z,59.53
2022-12-04T02:45:01.362Z,53.80
2022-12-04T02:46:35.414Z,59.57
2022-12-04T02:48:00.670Z,51.73
2022-12-04T02:49:28.058Z,58.33
2022-12-04T02:50:54.886Z,59.43
2022-12-04T02:52:22.517Z,55.80
2022-12-04T02:53:50.588Z,55.03
2022-12-04T02:55:44.569Z,56.23
2022-12-04T02:57:12.396Z,56.70
2022-12-04T02:58:44.570Z,63.00
2022-12-04T03:00:08.924Z,55.27
2022-12-04T03:01:36.161Z,54.83
2022-12-04T03:03:07.563Z,59.53
2022-12-04T03:04:33.480Z,52.90
2022-12-04T03:06:01.683Z,55.93
2022-12-04T03:07:42.480Z,55.80
2022-12-04T03:09:32.222Z,53.47
2022-12-04T03:10:57.867Z,58.47
2022-12-04T03:12:43.498Z,58.73
2022-12-04T03:14:29.358Z,59.23
2022-12-04T03:16:15.809Z,56.20
2022-12-04T03:18:01.933Z,50.40
2022-12-04T03:19:27.816Z,56.83
2022-12-04T03:20:56.433Z,60.77
2022-12-04T03:22:21.958Z,65.13
2022-12-04T03:24:10.329Z,53.17
2022-12-04T03:25:43.448Z,57.73
2022-12-04T03:27:14.217Z,50.30
2022-12-04T03:28:54.171Z,60.13
2022-12-04T03:30:19.409Z,59.27
2022-12-04T03:31:47.012Z,55.13
2022-12-04T03:33:19.950Z,58.63
2022-12-04T03:35:23.973Z,58.33
2022-12-04T03:37:00.528Z,55.00
2022-12-04T03:38:28.283Z,63.23
2022-12-04T03:39:56.107Z,53.40
2022-12-04T03:41:30.888Z,56.17
2022-12-04T03:43:14.584Z,58.87
2022-12-04T03:44:55.060Z,52.63
2022-12-04T03:46:39.395Z,57.30
2022-12-04T03:48:22.943Z,59.30
2022-12-04T03:49:57.965Z,55.80
2022-12-04T03:51:34.134Z,54.07
2022-12-04T03:53:02.231Z,54.70
2022-12-04T03:54:29.032Z,54.40
2022-12-04T03:56:05.090Z,52.53
2022-12-04T03:57:34.417Z,56.77
2022-12-04T03:59:00.909Z,54.03
2022-12-04T04:00:23.266Z,62.77
2022-12-04T04:01:49.437Z,53.57
2022-12-04T04:03:22.905Z,64.33
2022-12-04T04:04:50.338Z,57.20
2022-12-04T04:06:21.718Z,58.33
2022-12-04T04:08:22.875Z,61.33
2022-12-04T04:09:47.473Z,55.57
2022-12-04T04:11:16.747Z,55.90
2022-12-04T04:12:45.843Z,63.60
2022-12-04T04:14:52.338Z,54.07
2022-12-04T04:16:36.640Z,56.30
2022-12-04T04:18:20.050Z,55.77
2022-12-04T04:20:01.618Z,59.70
2022-12-04T04:21:46.369Z,54.87
2022-12-04T04:23:29.272Z,56.23
2022-12-04T04:24:56.384Z,62.00
2022-12-04T04:26:18.709Z,57.50
2022-12-04T04:27:40.749Z,56.53
2022-12-04T04:29:02.906Z,55.33
2022-12-04T04:30:26.561Z,59.10
2022-12-04T04:32:15.349Z,59.50
2022-12-04T04:33:54.521Z,55.23
2022-12-04T04:35:30.347Z,56.80
2022-12-04T04:37:07.698Z,56.50
2022-12-04T04:38:42.630Z,62.30
2022-12-04T04:40:31.183Z,52.60
2022-12-04T04:42:16.436Z,59.53
2022-12-04T04:43:51.822Z,54.90
2022-12-04T04:45:16.211Z,50.97
2022-12-04T04:46:43.056Z,51.27
2022-12-04T04:48:35.069Z,52.50
2022-12-04T04:50:01.790Z,57.87
2022-12-04T04:51:24.275Z,56.17
2022-12-04T04:52:50.820Z,57.00
2022-12-04T04:54:14.593Z,57.53
2022-12-04T04:55:37.127Z,57.73
2022-12-04T04:56:59.182Z,60.40
2022-12-04T04:58:21.793Z,57.30
2022-12-04T04:59:43.827Z,54.33
2022-12-04T05:01:12.016Z,52.00
2022-12-04T05:02:34.557Z,54.30
2022-12-04T05:03:56.674Z,57.93
2022-12-04T05:05:18.794Z,57.67
2022-12-04T05:06:41.016Z,55.93
2022-12-04T05:08:03.220Z,54.10
2022-12-04T05:09:26.333Z,53.80
2022-12-04T05:10:48.644Z,52.70
2022-12-04T05:12:10.676Z,58.40
2022-12-04T05:13:33.443Z,58.47
2022-12-04T05:14:55.542Z,57.30
2022-12-04T05:16:17.674Z,66.03
2022-12-04T05:17:39.745Z,58.53
2022-12-04T05:19:20.322Z,53.13
2022-12-04T05:20:42.337Z,57.50
2022-12-04T05:22:04.563Z,54.10
2022-12-04T05:23:26.638Z,62.73
2022-12-04T05:24:48.803Z,62.43
2022-12-04T05:26:10.983Z,58.43
2022-12-04T05:27:33.675Z,58.00
2022-12-04T05:28:55.722Z,54.93
2022-12-04T05:30:17.966Z,59.37
2022-12-04T05:31:40.091Z,56.97
2022-12-04T05:33:02.395Z,54.73
2022-12-04T05:34:24.500Z,53.90
2022-12-04T05:35:58.426Z,52.80
2022-12-04T05:37:21.230Z,49.70
2022-12-04T05:38:43.323Z,54.17
2022-12-04T05:40:06.926Z,55.70
2022-12-04T05:41:28.975Z,54.53
2022-12-04T05:42:51.309Z,58.60
2022-12-04T05:44:13.553Z,56.40
2022-12-04T05:45:35.619Z,56.63
2022-12-04T05:46:57.676Z,54.17
2022-12-04T05:48:19.938Z,56.50
2022-12-04T05:49:41.996Z,51.40
2022-12-04T05:51:08.991Z,56.03
2022-12-04T05:52:31.018Z,53.33
2022-12-04T05:53:53.138Z,59.83
2022-12-04T05:55:15.282Z,47.47
2022-12-04T05:56:37.396Z,54.63
2022-12-04T05:57:59.759Z,57.20
2022-12-04T05:59:22.114Z,60.37
2022-12-04T06:00:44.134Z,57.93
2022-12-04T06:02:06.233Z,53.73
2022-12-04T06:03:28.439Z,56.00
2022-12-04T06:04:51.015Z,57.60
2022-12-04T06:06:20.734Z,55.43
2022-12-04T06:07:43.831Z,56.87
2022-12-04T06:09:08.172Z,53.97
2022-12-04T06:10:30.197Z,62.90
2022-12-04T06:11:52.265Z,50.33
2022-12-04T06:13:14.301Z,51.23
2022-12-04T06:14:39.562Z,49.20
2022-12-04T06:16:02.126Z,62.63
2022-12-04T06:17:24.324Z,55.80
2022-12-04T06:18:53.885Z,55.63
2022-12-04T06:20:16.520Z,56.80
2022-12-04T06:21:40.383Z,54.50
2022-12-04T06:23:02.508Z,49.40
2022-12-04T06:24:25.046Z,60.33
2022-12-04T06:25:47.092Z,55.13
2022-12-04T06:27:27.130Z,55.43
2022-12-04T06:28:49.639Z,61.93
2022-12-04T06:30:12.104Z,50.70
2022-12-04T06:31:36.183Z,61.10
2022-12-04T06:32:58.349Z,50.73
2022-12-04T06:34:20.468Z,58.10
2022-12-04T06:35:42.531Z,51.93
2022-12-04T06:37:04.621Z,54.30
2022-12-04T06:38:26.837Z,58.00
2022-12-04T06:39:49.111Z,53.43
2022-12-04T06:41:13.767Z,61.60
2022-12-04T06:42:35.816Z,62.50
2022-12-04T06:43:58.164Z,60.13
2022-12-04T06:45:20.228Z,59.67
2022-12-04T06:46:46.708Z,61.20
2022-12-04T06:48:09.780Z,55.33
2022-12-04T06:49:31.784Z,59.63
2022-12-04T06:51:01.614Z,57.87
2022-12-04T06:52:23.798Z,63.67
2022-12-04T06:53:46.848Z,61.00
2022-12-04T06:55:09.274Z,62.20
2022-12-04T06:56:33.388Z,56.40
2022-12-04T06:57:55.421Z,62.73
2022-12-04T06:59:17.575Z,60.60
2022-12-04T07:00:39.580Z,67.00
2022-12-04T07:02:01.755Z,57.10
2022-12-04T07:03:25.174Z,70.27
2022-12-04T07:04:47.289Z,68.63
2022-12-04T07:06:20.610Z,61.40
2022-12-04T07:07:42.711Z,63.20
2022-12-04T07:09:09.679Z,60.93
2022-12-04T07:10:31.694Z,64.63
2022-12-04T07:11:54.962Z,59.80
2022-12-04T07:13:17.109Z,63.40
2022-12-04T07:14:39.267Z,62.40
2022-12-04T07:16:03.088Z,60.07
2022-12-04T07:17:25.106Z,64.33
2022-12-04T07:18:50.331Z,60.57
2022-12-04T07:20:12.762Z,62.57
2022-12-04T07:21:34.846Z,66.93
2022-12-04T07:22:56.919Z,58.67
2022-12-04T07:24:19.016Z,63.33
2022-12-04T07:25:41.175Z,70.27
2022-12-04T07:27:04.128Z,60.90
2022-12-04T07:28:26.309Z,60.87
2022-12-04T07:29:48.361Z,55.43
2022-12-04T07:31:12.628Z,58.77
2022-12-04T07:32:34.767Z,59.60
2022-12-04T07:33:57.928Z,55.00
2022-12-04T07:35:20.027Z,60.77
2022-12-04T07:36:42.164Z,54.60
2022-12-04T07:38:04.290Z,50.07
2022-12-04T07:39:26.388Z,52.93
2022-12-04T07:40:48.414Z,57.77
2022-12-04T07:42:10.535Z,51.23
2022-12-04T07:43:33.883Z,53.97
2022-12-04T07:44:55.942Z,57.03
2022-12-04T07:46:22.224Z,51.77
2022-12-04T07:47:44.339Z,55.07
2022-12-04T07:49:06.655Z,47.67
2022-12-04T07:50:28.723Z,51.87
2022-12-04T07:51:50.893Z,48.67
2022-12-04T07:53:13.408Z,53.33
2022-12-04T07:54:36.687Z,49.83
2022-12-04T07:55:58.894Z,47.07
2022-12-04T07:57:21.055Z,53.70
2022-12-04T07:58:44.092Z,52.93
2022-12-04T08:00:07.015Z,52.50
2022-12-04T08:01:29.237Z,50.50
2022-12-04T08:02:51.551Z,53.27
2022-12-04T08:04:14.045Z,48.83
2022-12-04T08:05:36.173Z,48.17
2022-12-04T08:06:58.451Z,44.67
2022-12-04T08:08:20.557Z,47.03
2022-12-04T08:09:42.980Z,45.10
2022-12-04T08:11:10.206Z,46.70
2022-12-04T08:12:33.172Z,47.80
2022-12-04T08:14:04.171Z,45.40
2022-12-04T08:15:26.456Z,46.63
2022-12-04T08:16:52.644Z,42.07
2022-12-04T08:18:15.183Z,46.17
2022-12-04T08:19:37.278Z,43.17
2022-12-04T08:21:13.884Z,46.67
2022-12-04T08:22:35.923Z,42.17
2022-12-04T08:23:59.530Z,41.30
2022-12-04T08:25:21.574Z,41.40
2022-12-04T08:26:43.642Z,42.17
2022-12-04T08:28:06.185Z,40.57
2022-12-04T08:29:28.268Z,45.07
2022-12-04T08:30:50.342Z,41.20
2022-12-04T08:32:12.460Z,37.37
2022-12-04T08:33:35.143Z,40.23
2022-12-04T08:34:57.190Z,40.37
2022-12-04T08:36:21.218Z,37.40
2022-12-04T08:37:43.259Z,39.50
2022-12-04T08:39:06.072Z,43.87
2022-12-04T08:40:28.379Z,39.60
2022-12-04T08:41:56.661Z,43.80
2022-12-04T08:43:19.288Z,40.90
2022-12-04T08:44:41.359Z,37.90
2022-12-04T08:46:09.843Z,39.53
2022-12-04T08:47:31.896Z,39.93
2022-12-04T08:48:54.367Z,40.90
2022-12-04T08:50:16.534Z,41.37
2022-12-04T08:51:39.340Z,41.73
2022-12-04T08:53:01.685Z,45.47
2022-12-04T08:54:23.872Z,38.50
2022-12-04T08:55:46.152Z,36.60
2022-12-04T08:57:08.326Z,47.30
2022-12-04T08:58:30.458Z,43.50
2022-12-04T08:59:52.898Z,41.63
2022-12-04T09:01:16.123Z,43.67
2022-12-04T09:02:38.421Z,35.87
2022-12-04T09:04:00.641Z,37.00
2022-12-04T09:05:22.915Z,36.00
2022-12-04T09:06:45.113Z,36.80
2022-12-04T09:08:07.926Z,33.57
2022-12-04T09:09:30.397Z,36.40
2022-12-04T09:10:52.487Z,32.87
2022-12-04T09:12:14.607Z,38.17
2022-12-04T09:13:37.176Z,36.23
2022-12-04T09:14:59.421Z,37.27
2022-12-04T09:16:23.957Z,41.37
2022-12-04T09:17:46.245Z,38.53
2022-12-04T09:19:08.383Z,33.70
2022-12-04T09:20:30.625Z,44.87
2022-12-04T09:21:52.871Z,34.07
2022-12-04T09:23:15.042Z,34.50
2022-12-04T09:24:37.060Z,30.73
2022-12-04T09:25:59.088Z,30.00
2022-12-04T09:27:21.142Z,31.77
2022-12-04T09:28:43.268Z,37.13
2022-12-04T09:30:06.381Z,40.30
2022-12-04T09:31:28.675Z,38.27
2022-12-04T09:32:50.841Z,42.90
2022-12-04T09:34:13.290Z,40.10
2022-12-04T09:35:35.556Z,40.47
2022-12-04T09:36:57.589Z,44.03
2022-12-04T09:38:20.130Z,41.17
2022-12-04T09:39:42.190Z,43.37
2022-12-04T09:41:22.947Z,52.47
2022-12-04T09:43:08.016Z,39.10
2022-12-04T09:44:35.246Z,40.90
2022-12-04T09:46:04.139Z,40.50
2022-12-04T09:47:43.433Z,42.67
2022-12-04T09:49:14.193Z,43.13
2022-12-04T09:50:43.529Z,36.53
2022-12-04T09:52:31.823Z,39.17
2022-12-04T09:54:05.221Z,44.43
2022-12-04T09:55:38.895Z,45.13
2022-12-04T09:57:10.528Z,41.60
2022-12-04T09:58:53.573Z,47.57
2022-12-04T10:00:18.648Z,43.97
2022-12-04T10:01:53.507Z,51.60
2022-12-04T10:03:18.646Z,44.10
2022-12-04T10:04:40.937Z,38.50
2022-12-04T10:06:11.102Z,42.83
2022-12-04T10:07:54.152Z,46.00
2022-12-04T10:09:20.848Z,41.90
2022-12-04T10:10:56.576Z,42.10
2022-12-04T10:12:36.865Z,46.07
2022-12-04T10:14:36.075Z,42.27
2022-12-04T10:16:16.661Z,43.10
2022-12-04T10:17:53.854Z,45.57
2022-12-04T10:19:30.788Z,43.70
2022-12-04T10:21:01.597Z,48.57
2022-12-04T10:22:56.705Z,44.90
2022-12-04T10:24:41.106Z,41.60
2022-12-04T10:26:05.332Z,39.03
2022-12-04T10:27:34.700Z,42.73
2022-12-04T10:29:08.140Z,40.23
2022-12-04T10:30:34.666Z,50.00
2022-12-04T10:32:05.435Z,46.33
2022-12-04T10:33:53.603Z,45.93
2022-12-04T10:35:19.946Z,38.60
2022-12-04T10:36:45.554Z,41.90
2022-12-04T10:38:22.267Z,40.13
2022-12-04T10:39:54.496Z,39.40
2022-12-04T10:41:50.888Z,37.00
2022-12-04T10:43:28.113Z,41.80
2022-12-04T10:44:50.227Z,38.50
2022-12-04T10:46:29.549Z,33.77
2022-12-04T10:47:53.256Z,38.80
2022-12-04T10:49:18.538Z,40.33
2022-12-04T10:50:40.744Z,36.50
2022-12-04T10:52:04.201Z,44.17
2022-12-04T10:53:36.977Z,44.63
2022-12-04T10:55:01.314Z,37.67
2022-12-04T10:56:26.027Z,37.43
2022-12-04T10:57:48.223Z,43.43
2022-12-04T10:59:15.752Z,42.93
2022-12-04T11:00:37.924Z,42.00
2022-12-04T11:02:20.308Z,48.77
2022-12-04T11:03:53.568Z,39.23
2022-12-04T11:05:32.079Z,44.53
2022-12-04T11:07:04.668Z,58.87
2022-12-04T11:08:40.670Z,43.97
2022-12-04T11:10:07.624Z,47.47
2022-12-04T11:11:34.682Z,42.00
2022-12-04T11:13:02.515Z,46.97
2022-12-04T11:14:24.648Z,51.40
2022-12-04T11:15:47.920Z,47.67
2022-12-04T11:17:19.800Z,48.83
2022-12-04T11:18:50.827Z,44.77
2022-12-04T11:20:22.559Z,47.40
2022-12-04T11:21:45.081Z,53.63
2022-12-04T11:23:07.152Z,45.40
2022-12-04T11:24:35.406Z,49.07
2022-12-04T11:26:05.536Z,52.30
2022-12-04T11:27:34.207Z,50.33
2022-12-04T11:29:01.270Z,46.97
2022-12-04T11:30:32.256Z,49.20
2022-12-04T11:31:58.585Z,41.47
2022-12-04T11:33:33.945Z,47.43
2022-12-04T11:35:17.299Z,47.70
2022-12-04T11:36:41.643Z,49.90
2022-12-04T11:38:15.259Z,47.33
2022-12-04T11:39:41.193Z,45.63
2022-12-04T11:41:04.071Z,51.60
2022-12-04T11:42:29.062Z,57.70
2022-12-04T11:43:55.222Z,50.90
2022-12-04T11:45:22.623Z,46.10
2022-12-04T11:46:56.874Z,56.17
2022-12-04T11:48:19.419Z,51.03
2022-12-04T11:49:44.018Z,49.20
2022-12-04T11:51:21.058Z,51.17
2022-12-04T11:52:48.836Z,50.63
2022-12-04T11:54:26.136Z,53.73
2022-12-04T11:56:13.722Z,53.50
2022-12-04T11:57:53.232Z,55.80
2022-12-04T11:59:31.817Z,51.97
2022-12-04T12:01:12.166Z,57.10
2022-12-04T12:02:55.638Z,55.80
2022-12-04T12:04:49.838Z,56.57
2022-12-04T12:06:36.313Z,55.17
2022-12-04T12:08:35.765Z,55.87
2022-12-04T12:10:03.739Z,55.13
2022-12-04T12:11:32.958Z,54.10
2022-12-04T12:13:22.128Z,59.77
2022-12-04T12:14:59.208Z,60.43
2022-12-04T12:16:55.095Z,57.87
2022-12-04T12:18:55.422Z,58.80
2022-12-04T12:20:26.341Z,55.03
2022-12-04T12:21:55.304Z,58.10
2022-12-04T12:23:42.630Z,55.57
2022-12-04T12:25:19.083Z,51.77
2022-12-04T12:27:07.272Z,55.53
2022-12-04T12:28:48.034Z,57.57
2022-12-04T12:30:15.430Z,48.87
2022-12-04T12:32:19.674Z,63.80
2022-12-04T12:34:10.933Z,51.93
2022-12-04T12:35:40.568Z,56.47
2022-12-04T12:37:21.397Z,62.40
2022-12-04T12:38:56.204Z,60.03
2022-12-04T12:40:47.575Z,56.90
2022-12-04T12:42:23.299Z,62.20
2022-12-04T12:43:53.782Z,61.87
2022-12-04T12:45:24.891Z,57.47
2022-12-04T12:47:08.036Z,57.97
2022-12-04T12:48:46.097Z,58.47
2022-12-04T12:50:25.975Z,63.67
2022-12-04T12:52:01.381Z,63.60
2022-12-04T12:53:29.106Z,61.77
2022-12-04T12:55:20.307Z,58.97
2022-12-04T12:56:50.072Z,54.30
2022-12-04T12:58:47.036Z,67.37
2022-12-04T13:00:21.794Z,66.67
2022-12-04T13:01:59.894Z,55.93
2022-12-04T13:03:25.778Z,62.63
2022-12-04T13:04:53.581Z,62.90
2022-12-04T13:06:20.783Z,59.67
2022-12-04T13:08:03.991Z,66.30
2022-12-04T13:09:32.766Z,65.33
2022-12-04T13:11:07.407Z,60.17
2022-12-04T13:12:31.904Z,56.47
2022-12-04T13:14:03.317Z,61.20
2022-12-04T13:15:49.278Z,58.37
2022-12-04T13:17:34.096Z,62.93
2022-12-04T13:19:17.603Z,60.00
2022-12-04T13:20:50.321Z,58.07
2022-12-04T13:22:16.882Z,64.00
2022-12-04T13:24:00.507Z,63.23
2022-12-04T13:25:59.250Z,64.40
2022-12-04T13:28:01.746Z,68.40
2022-12-04T13:29:57.550Z,60.20
2022-12-04T13:31:42.275Z,53.13
2022-12-04T13:33:23.110Z,61.00
2022-12-04T13:35:04.024Z,59.23
2022-12-04T13:36:41.374Z,66.43
2022-12-04T13:38:24.554Z,57.47
2022-12-04T13:40:33.205Z,58.87
2022-12-04T13:42:01.050Z,63.33
2022-12-04T13:43:29.074Z,56.53
2022-12-04T13:44:57.402Z,62.10
2022-12-04T13:46:39.663Z,54.30
2022-12-04T13:48:03.792Z,64.03
2022-12-04T13:49:31.970Z,56.20
2022-12-04T13:51:03.078Z,50.53
2022-12-04T13:52:40.641Z,52.90
2022-12-04T13:54:21.758Z,58.77
2022-12-04T13:55:54.829Z,54.10
2022-12-04T13:57:16.829Z,75.17
2022-12-04T13:58:38.973Z,64.10
2022-12-04T14:00:24.383Z,61.00
2022-12-04T14:01:49.925Z,54.47
2022-12-04T14:03:29.742Z,56.60
2022-12-04T14:04:59.827Z,55.97
2022-12-04T14:06:27.262Z,53.90
2022-12-04T14:08:07.595Z,60.77
2022-12-04T14:09:39.735Z,58.40
2022-12-04T14:11:07.658Z,54.43
2022-12-04T14:12:35.390Z,58.03
2022-12-04T14:14:02.299Z,55.73
2022-12-04T14:15:31.734Z,57.70
2022-12-04T14:16:55.962Z,53.47
2022-12-04T14:18:30.040Z,62.40
2022-12-04T14:20:07.291Z,59.30
2022-12-04T14:21:45.122Z,56.00
2022-12-04T14:23:38.008Z,61.43
2022-12-04T14:25:13.371Z,70.97
2022-12-04T14:27:03.524Z,63.30
2022-12-04T14:28:37.301Z,63.17
2022-12-04T14:30:04.735Z,59.10
2022-12-04T14:31:33.116Z,56.33
2022-12-04T14:33:20.064Z,54.37
2022-12-04T14:34:42.940Z,58.43
2022-12-04T14:36:09.718Z,54.93
2022-12-04T14:37:40.182Z,52.00
2022-12-04T14:39:12.735Z,55.97
2022-12-04T14:40:42.789Z,60.40
2022-12-04T14:42:16.705Z,56.90
2022-12-04T14:43:44.381Z,47.07
2022-12-04T14:45:25.277Z,55.23
2022-12-04T14:46:51.793Z,54.07
2022-12-04T14:48:41.614Z,54.47
2022-12-04T14:50:34.218Z,57.77
2022-12-04T14:52:18.704Z,49.13
2022-12-04T14:53:44.881Z,50.57
2022-12-04T14:55:45.064Z,54.63
2022-12-04T14:57:35.350Z,53.83
2022-12-04T14:58:58.812Z,48.63
2022-12-04T15:00:22.999Z,56.87
2022-12-04T15:01:48.270Z,49.40
2022-12-04T15:03:13.433Z,47.03
2022-12-04T15:04:35.737Z,52.47
2022-12-04T15:06:04.138Z,49.33
2022-12-04T15:07:30.878Z,54.00
2022-12-04T15:09:17.718Z,54.17
2022-12-04T15:10:59.360Z,54.23
2022-12-04T15:12:33.460Z,51.10
2022-12-04T15:14:05.362Z,51.63
2022-12-04T15:15:29.685Z,52.17
2022-12-04T15:17:02.988Z,46.60
2022-12-04T15:18:25.164Z,49.33
2022-12-04T15:19:47.276Z,48.80
2022-12-04T15:21:11.278Z,49.63
2022-12-04T15:22:33.377Z,51.30
2022-12-04T15:23:55.529Z,51.60
2022-12-04T15:25:25.379Z,45.53
2022-12-04T15:26:48.922Z,54.47
2022-12-04T15:28:31.161Z,45.90
2022-12-04T15:29:56.123Z,57.80
2022-12-04T15:31:28.901Z,44.13
2022-12-04T15:32:53.381Z,50.70
2022-12-04T15:34:17.788Z,46.70
2022-12-04T15:35:45.658Z,48.57
2022-12-04T15:37:18.294Z,50.57
2022-12-04T15:38:40.945Z,45.73
2022-12-04T15:40:08.145Z,47.83
2022-12-04T15:41:33.845Z,47.40
2022-12-04T15:43:13.615Z,45.37
2022-12-04T15:44:36.591Z,45.30
2022-12-04T15:45:59.064Z,42.40
2022-12-04T15:47:24.902Z,48.53
2022-12-04T15:48:48.102Z,42.80
2022-12-04T15:50:15.994Z,49.10
2022-12-04T15:51:38.144Z,42.00
2022-12-04T15:53:05.822Z,45.97
2022-12-04T15:54:28.236Z,45.00
2022-12-04T15:55:59.698Z,45.80
2022-12-04T15:57:36.837Z,40.90
2022-12-04T15:59:01.625Z,45.17
2022-12-04T16:00:23.836Z,36.93
2022-12-04T16:01:46.052Z,48.67
2022-12-04T16:03:30.692Z,38.47
2022-12-04T16:04:52.912Z,46.93
2022-12-04T16:06:25.228Z,45.53
2022-12-04T16:07:51.391Z,44.80
2022-12-04T16:09:24.684Z,49.40
2022-12-04T16:10:58.503Z,42.03
2022-12-04T16:12:26.201Z,44.53
2022-12-04T16:13:50.979Z,41.43
2022-12-04T16:15:13.138Z,43.80
2022-12-04T16:16:42.280Z,48.23
2022-12-04T16:18:06.412Z,45.20
2022-12-04T16:19:35.988Z,49.07
2022-12-04T16:20:58.177Z,47.50
2022-12-04T16:22:23.448Z,42.43
2022-12-04T16:23:45.967Z,41.97
2022-12-04T16:25:11.998Z,43.10
2022-12-04T16:26:34.333Z,48.57
2022-12-04T16:27:56.399Z,42.83
2022-12-04T16:29:18.489Z,40.10
2022-12-04T16:30:40.601Z,41.57
2022-12-04T16:32:03.552Z,46.70
2022-12-04T16:33:25.826Z,43.97
2022-12-04T16:34:48.653Z,45.47
2022-12-04T16:36:11.494Z,51.50
2022-12-04T16:37:33.590Z,41.50
2022-12-04T16:38:55.807Z,38.90
2022-12-04T16:40:18.042Z,41.67
2022-12-04T16:41:40.846Z,45.53
2022-12-04T16:43:03.061Z,38.00
2022-12-04T16:44:25.284Z,42.60
2022-12-04T16:45:51.556Z,46.30
2022-12-04T16:47:15.062Z,50.93
2022-12-04T16:48:37.689Z,38.00
2022-12-04T16:49:59.822Z,38.93
2022-12-04T16:51:24.467Z,38.57
2022-12-04T16:52:46.561Z,37.93
2022-12-04T16:54:11.588Z,41.87
2022-12-04T16:55:38.567Z,40.17
2022-12-04T16:57:00.748Z,41.57
2022-12-04T16:58:22.830Z,40.33
2022-12-04T16:59:44.880Z,40.13
2022-12-04T17:01:24.030Z,36.93
2022-12-04T17:02:46.882Z,41.87
2022-12-04T17:04:10.117Z,39.50
2022-12-04T17:05:35.745Z,35.80
2022-12-04T17:06:57.792Z,39.60
2022-12-04T17:08:20.156Z,39.87
2022-12-04T17:09:42.287Z,42.90
2022-12-04T17:11:04.367Z,38.33
2022-12-04T17:12:26.561Z,34.20
2022-12-04T17:13:48.631Z,39.47
2022-12-04T17:15:12.522Z,35.57
2022-12-04T17:16:39.180Z,37.40
2022-12-04T17:18:04.789Z,41.57
2022-12-04T17:19:31.142Z,37.13
2022-12-04T17:20:53.396Z,32.63
2022-12-04T17:22:16.215Z,38.90
2022-12-04T17:23:38.465Z,34.50
2022-12-04T17:25:00.813Z,40.53
2022-12-04T17:26:23.156Z,36.63
2022-12-04T17:27:45.654Z,39.93
2022-12-04T17:29:07.757Z,41.03
2022-12-04T17:30:34.379Z,38.20
2022-12-04T17:31:58.040Z,39.60
2022-12-04T17:33:20.101Z,43.10
2022-12-04T17:34:42.191Z,41.93
2022-12-04T17:36:09.555Z,37.73
2022-12-04T17:37:33.344Z,42.47
2022-12-04T17:38:57.082Z,36.90
2022-12-04T17:40:19.299Z,44.00
2022-12-04T17:41:41.341Z,49.67
2022-12-04T17:43:03.831Z,46.20
2022-12-04T17:44:26.011Z,43.57
2022-12-04T17:45:48.068Z,48.30
2022-12-04T17:47:10.695Z,48.87
2022-12-04T17:48:32.776Z,46.53
2022-12-04T17:49:54.934Z,53.63
2022-12-04T17:51:20.313Z,41.30
2022-12-04T17:52:42.365Z,42.40
2022-12-04T17:54:05.807Z,42.57
2022-12-04T17:55:27.866Z,44.40
2022-12-04T17:56:56.146Z,38.23
2022-12-04T17:58:19.708Z,45.17
2022-12-04T17:59:41.962Z,42.50
2022-12-04T18:01:09.732Z,41.40
2022-12-04T18:02:31.913Z,50.50
2022-12-04T18:03:57.048Z,44.97
2022-12-04T18:05:19.175Z,44.10
2022-12-04T18:06:43.144Z,46.57
2022-12-04T18:08:05.334Z,38.63
2022-12-04T18:09:27.644Z,41.83
2022-12-04T18:10:50.289Z,45.87
2022-12-04T18:12:14.357Z,38.13
2022-12-04T18:13:36.865Z,42.97
2022-12-04T18:14:59.218Z,48.47
2022-12-04T18:16:22.080Z,51.03
2022-12-04T18:17:44.270Z,45.77
2022-12-04T18:19:07.126Z,47.50
2022-12-04T18:20:29.181Z,44.10
2022-12-04T18:21:51.349Z,45.93
2022-12-04T18:23:13.849Z,47.17
2022-12-04T18:24:36.047Z,49.10
2022-12-04T18:25:59.732Z,42.67
2022-12-04T18:27:21.830Z,54.93
2022-12-04T18:28:44.828Z,49.20
2022-12-04T18:30:07.590Z,45.23
2022-12-04T18:31:29.744Z,45.20
2022-12-04T18:32:55.032Z,46.67
2022-12-04T18:34:17.661Z,47.97
2022-12-04T18:35:39.770Z,44.70
2022-12-04T18:37:01.888Z,54.87
2022-12-04T18:38:25.155Z,47.80
2022-12-04T18:39:49.784Z,50.00
2022-12-04T18:41:13.891Z,44.73
2022-12-04T18:42:36.047Z,51.07
2022-12-04T18:43:58.955Z,51.57
2022-12-04T18:45:22.418Z,47.60
2022-12-04T18:46:44.618Z,49.07
2022-12-04T18:48:06.832Z,49.93
2022-12-04T18:49:28.896Z,49.80
2022-12-04T18:50:50.953Z,44.07
2022-12-04T18:52:13.003Z,52.70
2022-12-04T18:53:35.156Z,53.03
2022-12-04T18:54:57.357Z,52.07
2022-12-04T18:56:20.209Z,49.57